sensor_id;sensor_type;location;lat;lon;timestamp;temperature;humidity
1461;DHT22;724;49.910;12.530;2023-05-19T00:00:55;8.00;99.90
1461;DHT22;724;49.910;12.530;2023-05-19T00:03:22;8.00;99.90
1461;DHT22;724;49.910;12.530;2023-05-19T00:05:52;8.10;99.90
1461;DHT22;724;49.910;12.530;2023-05-19T00:08:19;8.00;99.90
1461;DHT22;724;49.910;12.530;2023-05-19T00:10:48;8.00;99.90
1461;DHT22;724;49.910;12.530;2023-05-19T00:13:17;8.00;99.90
1461;DHT22;724;49.910;12.530;2023-05-19T00:15:44;8.00;99.90
1461;DHT22;724;49.910;12.530;2023-05-19T00:18:11;8.00;99.90
1461;DHT22;724;49.910;12.530;2023-05-19T00:20:38;8.00;99.90
1461;DHT22;724;49.910;12.530;2023-05-19T00:23:05;8.00;99.90
1461;DHT22;724;49.910;12.530;2023-05-19T00:25:32;8.00;99.90
1461;DHT22;724;49.910;12.530;2023-05-19T00:27:59;8.00;99.90
1461;DHT22;724;49.910;12.530;2023-05-19T00:30:28;8.00;99.90
1461;DHT22;724;49.910;12.530;2023-05-19T00:32:55;7.90;99.90
1461;DHT22;724;49.910;12.530;2023-05-19T00:35:22;7.90;99.90
1461;DHT22;724;49.910;12.530;2023-05-19T00:37:49;7.90;99.90
1461;DHT22;724;49.910;12.530;2023-05-19T00:40:16;7.80;99.90
1461;DHT22;724;49.910;12.530;2023-05-19T00:42:42;7.80;99.90
1461;DHT22;724;49.910;12.530;2023-05-19T00:45:10;7.90;99.90
1461;DHT22;724;49.910;12.530;2023-05-19T00:47:38;7.80;99.90
1461;DHT22;724;49.910;12.530;2023-05-19T00:50:06;7.80;99.90
1461;DHT22;724;49.910;12.530;2023-05-19T00:52:32;7.80;99.90
1461;DHT22;724;49.910;12.530;2023-05-19T00:54:59;7.80;99.90
1461;DHT22;724;49.910;12.530;2023-05-19T00:57:26;7.80;99.90
1461;DHT22;724;49.910;12.530;2023-05-19T00:59:53;7.80;99.90
1461;DHT22;724;49.910;12.530;2023-05-19T01:02:20;7.80;99.90
1461;DHT22;724;49.910;12.530;2023-05-19T01:04:49;7.80;99.90
1461;DHT22;724;49.910;12.530;2023-05-19T01:07:17;7.70;99.90
1461;DHT22;724;49.910;12.530;2023-05-19T01:09:46;7.80;99.90
1461;DHT22;724;49.910;12.530;2023-05-19T01:12:13;7.70;99.90
1461;DHT22;724;49.910;12.530;2023-05-19T01:14:40;7.80;99.90
1461;DHT22;724;49.910;12.530;2023-05-19T01:17:15;7.80;99.90
1461;DHT22;724;49.910;12.530;2023-05-19T01:19:56;7.70;99.90
1461;DHT22;724;49.910;12.530;2023-05-19T01:22:53;7.70;99.90
1461;DHT22;724;49.910;12.530;2023-05-19T01:25:41;7.70;99.90
1461;DHT22;724;49.910;12.530;2023-05-19T01:28:31;7.70;99.90
1461;DHT22;724;49.910;12.530;2023-05-19T01:31:05;7.70;99.90
1461;DHT22;724;49.910;12.530;2023-05-19T01:33:35;7.70;99.90
1461;DHT22;724;49.910;12.530;2023-05-19T01:36:05;7.70;99.90
1461;DHT22;724;49.910;12.530;2023-05-19T01:38:33;7.70;99.90
1461;DHT22;724;49.910;12.530;2023-05-19T01:41:02;7.70;99.90
1461;DHT22;724;49.910;12.530;2023-05-19T01:43:29;7.60;99.90
1461;DHT22;724;49.910;12.530;2023-05-19T01:45:57;7.60;99.90
1461;DHT22;724;49.910;12.530;2023-05-19T01:48:26;7.60;99.90
1461;DHT22;724;49.910;12.530;2023-05-19T01:50:54;7.60;99.90
1461;DHT22;724;49.910;12.530;2023-05-19T01:53:21;7.60;99.90
1461;DHT22;724;49.910;12.530;2023-05-19T01:55:50;7.60;99.90
1461;DHT22;724;49.910;12.530;2023-05-19T01:58:21;7.50;99.90
1461;DHT22;724;49.910;12.530;2023-05-19T02:00:52;7.50;99.90
1461;DHT22;724;49.910;12.530;2023-05-19T02:03:31;7.40;99.90
1461;DHT22;724;49.910;12.530;2023-05-19T02:06:13;7.50;99.90
1461;DHT22;724;49.910;12.530;2023-05-19T02:08:51;7.50;99.90
1461;DHT22;724;49.910;12.530;2023-05-19T02:11:26;7.40;99.90
1461;DHT22;724;49.910;12.530;2023-05-19T02:13:56;7.40;99.90
1461;DHT22;724;49.910;12.530;2023-05-19T02:16:27;7.40;99.90
1461;DHT22;724;49.910;12.530;2023-05-19T02:18:55;7.40;99.90
1461;DHT22;724;49.910;12.530;2023-05-19T02:21:23;7.30;99.90
1461;DHT22;724;49.910;12.530;2023-05-19T02:23:50;7.30;99.90
1461;DHT22;724;49.910;12.530;2023-05-19T02:26:17;7.30;99.90
1461;DHT22;724;49.910;12.530;2023-05-19T02:28:44;7.20;99.90
1461;DHT22;724;49.910;12.530;2023-05-19T02:31:11;7.20;99.90
1461;DHT22;724;49.910;12.530;2023-05-19T02:33:37;7.20;99.90
1461;DHT22;724;49.910;12.530;2023-05-19T02:36:06;7.10;99.90
1461;DHT22;724;49.910;12.530;2023-05-19T02:38:33;7.00;99.90
1461;DHT22;724;49.910;12.530;2023-05-19T02:41:00;7.00;99.90
1461;DHT22;724;49.910;12.530;2023-05-19T02:43:27;7.00;99.90
1461;DHT22;724;49.910;12.530;2023-05-19T02:45:55;7.00;99.90
1461;DHT22;724;49.910;12.530;2023-05-19T02:48:21;7.00;99.90
1461;DHT22;724;49.910;12.530;2023-05-19T02:50:48;7.00;99.90
1461;DHT22;724;49.910;12.530;2023-05-19T02:53:16;7.00;99.90
1461;DHT22;724;49.910;12.530;2023-05-19T02:55:43;7.00;99.90
1461;DHT22;724;49.910;12.530;2023-05-19T02:58:10;6.90;99.90
1461;DHT22;724;49.910;12.530;2023-05-19T03:00:37;6.80;99.90
1461;DHT22;724;49.910;12.530;2023-05-19T03:03:03;6.90;99.90
1461;DHT22;724;49.910;12.530;2023-05-19T03:05:30;6.90;99.90
1461;DHT22;724;49.910;12.530;2023-05-19T03:07:57;6.90;99.90
1461;DHT22;724;49.910;12.530;2023-05-19T03:10:25;6.90;99.90
1461;DHT22;724;49.910;12.530;2023-05-19T03:12:52;6.90;99.90
1461;DHT22;724;49.910;12.530;2023-05-19T03:15:18;6.90;99.90
1461;DHT22;724;49.910;12.530;2023-05-19T03:17:47;7.00;99.90
1461;DHT22;724;49.910;12.530;2023-05-19T03:20:14;7.00;99.90
1461;DHT22;724;49.910;12.530;2023-05-19T03:22:41;7.00;99.90
1461;DHT22;724;49.910;12.530;2023-05-19T03:25:08;7.00;99.90
1461;DHT22;724;49.910;12.530;2023-05-19T03:27:36;7.10;99.90
1461;DHT22;724;49.910;12.530;2023-05-19T03:30:04;7.10;99.90
1461;DHT22;724;49.910;12.530;2023-05-19T03:32:31;7.10;99.90
1461;DHT22;724;49.910;12.530;2023-05-19T03:34:58;7.10;99.90
1461;DHT22;724;49.910;12.530;2023-05-19T03:37:25;7.10;99.90
1461;DHT22;724;49.910;12.530;2023-05-19T03:39:52;7.10;99.90
1461;DHT22;724;49.910;12.530;2023-05-19T03:42:19;7.10;99.90
1461;DHT22;724;49.910;12.530;2023-05-19T03:44:47;7.10;99.90
1461;DHT22;724;49.910;12.530;2023-05-19T03:47:14;7.10;99.90
1461;DHT22;724;49.910;12.530;2023-05-19T03:49:40;7.10;99.90
1461;DHT22;724;49.910;12.530;2023-05-19T03:52:07;7.20;99.90
1461;DHT22;724;49.910;12.530;2023-05-19T03:54:35;7.20;99.90
1461;DHT22;724;49.910;12.530;2023-05-19T03:57:04;7.20;99.90
1461;DHT22;724;49.910;12.530;2023-05-19T03:59:31;7.30;99.90
1461;DHT22;724;49.910;12.530;2023-05-19T04:01:59;7.30;99.90
1461;DHT22;724;49.910;12.530;2023-05-19T04:04:26;7.30;99.90
1461;DHT22;724;49.910;12.530;2023-05-19T04:06:53;7.30;99.90
1461;DHT22;724;49.910;12.530;2023-05-19T04:09:20;7.30;99.90
1461;DHT22;724;49.910;12.530;2023-05-19T04:11:48;7.30;99.90
1461;DHT22;724;49.910;12.530;2023-05-19T04:14:15;7.30;99.90
1461;DHT22;724;49.910;12.530;2023-05-19T04:16:42;7.30;99.90
1461;DHT22;724;49.910;12.530;2023-05-19T04:19:10;7.40;99.90
1461;DHT22;724;49.910;12.530;2023-05-19T04:21:36;7.40;99.90
1461;DHT22;724;49.910;12.530;2023-05-19T04:24:04;7.40;99.90
1461;DHT22;724;49.910;12.530;2023-05-19T04:26:31;7.50;99.90
1461;DHT22;724;49.910;12.530;2023-05-19T04:28:59;7.60;99.90
1461;DHT22;724;49.910;12.530;2023-05-19T04:31:26;7.60;99.90
1461;DHT22;724;49.910;12.530;2023-05-19T04:33:53;7.70;99.90
1461;DHT22;724;49.910;12.530;2023-05-19T04:36:21;7.70;99.90
1461;DHT22;724;49.910;12.530;2023-05-19T04:38:48;7.70;99.90
1461;DHT22;724;49.910;12.530;2023-05-19T04:41:19;7.70;99.90
1461;DHT22;724;49.910;12.530;2023-05-19T04:43:46;7.80;99.90
1461;DHT22;724;49.910;12.530;2023-05-19T04:46:14;8.00;99.90
1461;DHT22;724;49.910;12.530;2023-05-19T04:48:41;8.10;99.90
1461;DHT22;724;49.910;12.530;2023-05-19T04:51:08;8.30;99.90
1461;DHT22;724;49.910;12.530;2023-05-19T04:53:40;8.50;99.90
1461;DHT22;724;49.910;12.530;2023-05-19T04:56:07;8.50;99.90
1461;DHT22;724;49.910;12.530;2023-05-19T04:58:34;8.60;99.90
1461;DHT22;724;49.910;12.530;2023-05-19T05:01:02;8.70;99.90
1461;DHT22;724;49.910;12.530;2023-05-19T05:03:29;8.80;99.90
1461;DHT22;724;49.910;12.530;2023-05-19T05:05:57;9.00;99.90
1461;DHT22;724;49.910;12.530;2023-05-19T05:08:24;9.10;99.90
1461;DHT22;724;49.910;12.530;2023-05-19T05:10:53;9.30;99.90
1461;DHT22;724;49.910;12.530;2023-05-19T05:13:21;9.30;99.90
1461;DHT22;724;49.910;12.530;2023-05-19T05:15:48;9.80;99.90
1461;DHT22;724;49.910;12.530;2023-05-19T05:18:16;9.80;99.90
1461;DHT22;724;49.910;12.530;2023-05-19T05:20:44;9.60;99.90
1461;DHT22;724;49.910;12.530;2023-05-19T05:23:12;9.50;99.90
1461;DHT22;724;49.910;12.530;2023-05-19T05:25:40;9.80;99.90
1461;DHT22;724;49.910;12.530;2023-05-19T05:28:08;9.70;99.90
1461;DHT22;724;49.910;12.530;2023-05-19T05:30:36;9.80;99.90
1461;DHT22;724;49.910;12.530;2023-05-19T05:33:03;10.00;99.90
1461;DHT22;724;49.910;12.530;2023-05-19T05:35:30;10.20;99.90
1461;DHT22;724;49.910;12.530;2023-05-19T05:37:57;10.10;99.90
1461;DHT22;724;49.910;12.530;2023-05-19T05:40:24;10.50;99.90
1461;DHT22;724;49.910;12.530;2023-05-19T05:42:51;10.10;99.90
1461;DHT22;724;49.910;12.530;2023-05-19T05:45:21;10.10;99.90
1461;DHT22;724;49.910;12.530;2023-05-19T05:47:48;10.20;99.90
1461;DHT22;724;49.910;12.530;2023-05-19T05:50:16;10.40;99.90
1461;DHT22;724;49.910;12.530;2023-05-19T05:52:45;10.50;99.90
1461;DHT22;724;49.910;12.530;2023-05-19T05:55:14;10.20;99.90
1461;DHT22;724;49.910;12.530;2023-05-19T05:57:41;10.40;99.90
1461;DHT22;724;49.910;12.530;2023-05-19T06:00:09;10.10;99.90
1461;DHT22;724;49.910;12.530;2023-05-19T06:02:41;9.90;99.90
1461;DHT22;724;49.910;12.530;2023-05-19T06:05:09;10.10;99.90
1461;DHT22;724;49.910;12.530;2023-05-19T06:07:37;10.60;99.90
1461;DHT22;724;49.910;12.530;2023-05-19T06:10:05;10.80;99.90
1461;DHT22;724;49.910;12.530;2023-05-19T06:12:33;10.60;99.90
1461;DHT22;724;49.910;12.530;2023-05-19T06:15:01;11.20;99.90
1461;DHT22;724;49.910;12.530;2023-05-19T06:17:31;12.10;99.90
1461;DHT22;724;49.910;12.530;2023-05-19T06:20:00;11.30;99.90
1461;DHT22;724;49.910;12.530;2023-05-19T06:22:27;11.60;99.90
1461;DHT22;724;49.910;12.530;2023-05-19T06:24:53;11.50;99.90
1461;DHT22;724;49.910;12.530;2023-05-19T06:27:20;11.00;99.90
1461;DHT22;724;49.910;12.530;2023-05-19T06:29:47;10.80;99.90
1461;DHT22;724;49.910;12.530;2023-05-19T06:32:14;11.00;99.90
1461;DHT22;724;49.910;12.530;2023-05-19T06:34:41;11.10;99.90
1461;DHT22;724;49.910;12.530;2023-05-19T06:37:09;11.90;99.90
1461;DHT22;724;49.910;12.530;2023-05-19T06:39:36;12.40;99.90
1461;DHT22;724;49.910;12.530;2023-05-19T06:42:04;12.60;99.90
1461;DHT22;724;49.910;12.530;2023-05-19T06:44:30;12.50;99.90
1461;DHT22;724;49.910;12.530;2023-05-19T06:46:57;12.80;99.90
1461;DHT22;724;49.910;12.530;2023-05-19T06:49:24;13.20;99.90
1461;DHT22;724;49.910;12.530;2023-05-19T06:51:53;12.80;99.90
1461;DHT22;724;49.910;12.530;2023-05-19T06:54:21;12.70;99.90
1461;DHT22;724;49.910;12.530;2023-05-19T06:56:48;13.60;99.90
1461;DHT22;724;49.910;12.530;2023-05-19T06:59:15;14.60;99.90
1461;DHT22;724;49.910;12.530;2023-05-19T07:01:41;14.00;99.90
1461;DHT22;724;49.910;12.530;2023-05-19T07:04:08;13.70;99.90
1461;DHT22;724;49.910;12.530;2023-05-19T07:06:35;14.10;99.90
1461;DHT22;724;49.910;12.530;2023-05-19T07:09:03;14.00;99.90
1461;DHT22;724;49.910;12.530;2023-05-19T07:11:35;14.60;99.90
1461;DHT22;724;49.910;12.530;2023-05-19T07:14:01;14.50;99.90
1461;DHT22;724;49.910;12.530;2023-05-19T07:16:28;15.10;99.90
1461;DHT22;724;49.910;12.530;2023-05-19T07:18:55;15.30;99.90
1461;DHT22;724;49.910;12.530;2023-05-19T07:21:22;16.10;99.90
1461;DHT22;724;49.910;12.530;2023-05-19T07:23:49;16.20;99.90
1461;DHT22;724;49.910;12.530;2023-05-19T07:26:15;17.00;99.90
1461;DHT22;724;49.910;12.530;2023-05-19T07:28:43;16.50;99.90
1461;DHT22;724;49.910;12.530;2023-05-19T07:31:10;17.00;99.90
1461;DHT22;724;49.910;12.530;2023-05-19T07:33:37;16.60;99.90
1461;DHT22;724;49.910;12.530;2023-05-19T07:36:04;16.40;97.80
1461;DHT22;724;49.910;12.530;2023-05-19T07:38:31;16.00;88.80
1461;DHT22;724;49.910;12.530;2023-05-19T07:40:59;16.00;87.60
1461;DHT22;724;49.910;12.530;2023-05-19T07:43:26;16.90;96.10
1461;DHT22;724;49.910;12.530;2023-05-19T07:45:54;16.20;71.30
1461;DHT22;724;49.910;12.530;2023-05-19T07:48:21;17.00;75.70
1461;DHT22;724;49.910;12.530;2023-05-19T07:50:51;16.80;56.10
1461;DHT22;724;49.910;12.530;2023-05-19T07:53:18;15.40;42.80
1461;DHT22;724;49.910;12.530;2023-05-19T07:55:45;15.00;36.60
1461;DHT22;724;49.910;12.530;2023-05-19T07:58:12;15.10;43.00
1461;DHT22;724;49.910;12.530;2023-05-19T08:00:39;14.70;25.30
1461;DHT22;724;49.910;12.530;2023-05-19T08:03:09;14.20;22.70
1461;DHT22;724;49.910;12.530;2023-05-19T08:05:35;16.50;47.90
1461;DHT22;724;49.910;12.530;2023-05-19T08:08:02;16.40;35.40
1461;DHT22;724;49.910;12.530;2023-05-19T08:10:29;15.50;23.50
1461;DHT22;724;49.910;12.530;2023-05-19T08:12:56;16.10;30.90
1461;DHT22;724;49.910;12.530;2023-05-19T08:15:23;16.30;30.90
1461;DHT22;724;49.910;12.530;2023-05-19T08:17:49;15.40;6.80
1461;DHT22;724;49.910;12.530;2023-05-19T08:20:18;15.60;15.80
1461;DHT22;724;49.910;12.530;2023-05-19T08:22:46;16.10;9.50
1461;DHT22;724;49.910;12.530;2023-05-19T08:25:13;16.20;8.10
1461;DHT22;724;49.910;12.530;2023-05-19T08:27:40;15.40;1.00
1461;DHT22;724;49.910;12.530;2023-05-19T08:30:08;17.60;19.80
1461;DHT22;724;49.910;12.530;2023-05-19T08:32:35;17.00;1.00
1461;DHT22;724;49.910;12.530;2023-05-19T08:35:02;15.60;1.00
1461;DHT22;724;49.910;12.530;2023-05-19T08:37:31;17.10;1.00
1461;DHT22;724;49.910;12.530;2023-05-19T08:39:58;18.10;1.00
1461;DHT22;724;49.910;12.530;2023-05-19T08:42:25;16.50;1.00
1461;DHT22;724;49.910;12.530;2023-05-19T08:44:52;16.80;1.00
1461;DHT22;724;49.910;12.530;2023-05-19T08:47:18;17.50;1.00
1461;DHT22;724;49.910;12.530;2023-05-19T08:49:46;18.40;1.00
1461;DHT22;724;49.910;12.530;2023-05-19T08:52:23;17.90;1.00
1461;DHT22;724;49.910;12.530;2023-05-19T08:54:59;18.40;1.00
1461;DHT22;724;49.910;12.530;2023-05-19T08:57:27;17.90;1.00
1461;DHT22;724;49.910;12.530;2023-05-19T08:59:55;17.90;1.00
1461;DHT22;724;49.910;12.530;2023-05-19T09:02:22;18.20;1.00
1461;DHT22;724;49.910;12.530;2023-05-19T09:04:49;17.00;1.00
1461;DHT22;724;49.910;12.530;2023-05-19T09:07:17;16.90;1.00
1461;DHT22;724;49.910;12.530;2023-05-19T09:09:45;17.40;1.00
1461;DHT22;724;49.910;12.530;2023-05-19T09:12:13;18.10;1.00
1461;DHT22;724;49.910;12.530;2023-05-19T09:14:40;16.70;1.00
1461;DHT22;724;49.910;12.530;2023-05-19T09:17:07;16.80;1.00
1461;DHT22;724;49.910;12.530;2023-05-19T09:19:35;17.70;1.00
1461;DHT22;724;49.910;12.530;2023-05-19T09:22:07;16.80;1.00
1461;DHT22;724;49.910;12.530;2023-05-19T09:24:34;16.80;1.00
1461;DHT22;724;49.910;12.530;2023-05-19T09:27:03;17.50;1.00
1461;DHT22;724;49.910;12.530;2023-05-19T09:29:31;16.50;1.00
1461;DHT22;724;49.910;12.530;2023-05-19T09:31:58;16.20;1.00
1461;DHT22;724;49.910;12.530;2023-05-19T09:34:29;17.00;1.00
1461;DHT22;724;49.910;12.530;2023-05-19T09:36:57;16.90;1.00
1461;DHT22;724;49.910;12.530;2023-05-19T09:39:25;17.10;1.00
1461;DHT22;724;49.910;12.530;2023-05-19T09:41:54;16.10;1.00
1461;DHT22;724;49.910;12.530;2023-05-19T09:44:24;16.60;1.00
1461;DHT22;724;49.910;12.530;2023-05-19T09:46:55;15.60;1.00
1461;DHT22;724;49.910;12.530;2023-05-19T09:49:23;16.60;1.00
1461;DHT22;724;49.910;12.530;2023-05-19T09:51:53;17.10;1.00
1461;DHT22;724;49.910;12.530;2023-05-19T09:54:21;18.50;1.00
1461;DHT22;724;49.910;12.530;2023-05-19T09:56:55;18.40;1.00
1461;DHT22;724;49.910;12.530;2023-05-19T09:59:23;16.90;1.00
1461;DHT22;724;49.910;12.530;2023-05-19T10:01:52;16.80;1.00
1461;DHT22;724;49.910;12.530;2023-05-19T10:04:21;18.50;1.00
1461;DHT22;724;49.910;12.530;2023-05-19T10:06:49;16.60;1.00
1461;DHT22;724;49.910;12.530;2023-05-19T10:09:21;16.20;1.00
1461;DHT22;724;49.910;12.530;2023-05-19T10:11:51;17.30;1.00
1461;DHT22;724;49.910;12.530;2023-05-19T10:14:21;18.20;1.00
1461;DHT22;724;49.910;12.530;2023-05-19T10:16:50;18.00;1.00
1461;DHT22;724;49.910;12.530;2023-05-19T10:19:21;16.50;1.00
1461;DHT22;724;49.910;12.530;2023-05-19T10:21:49;17.50;1.00
1461;DHT22;724;49.910;12.530;2023-05-19T10:24:16;18.40;1.00
1461;DHT22;724;49.910;12.530;2023-05-19T10:26:45;18.20;1.00
1461;DHT22;724;49.910;12.530;2023-05-19T10:29:16;17.90;1.00
1461;DHT22;724;49.910;12.530;2023-05-19T10:31:45;16.90;1.00
1461;DHT22;724;49.910;12.530;2023-05-19T10:34:33;18.00;1.00
1461;DHT22;724;49.910;12.530;2023-05-19T10:37:13;17.40;1.00
1461;DHT22;724;49.910;12.530;2023-05-19T10:39:43;17.00;1.00
1461;DHT22;724;49.910;12.530;2023-05-19T10:42:14;17.00;1.00
1461;DHT22;724;49.910;12.530;2023-05-19T10:44:52;17.90;1.00
1461;DHT22;724;49.910;12.530;2023-05-19T10:47:24;17.70;1.00
1461;DHT22;724;49.910;12.530;2023-05-19T10:49:52;18.20;1.00
1461;DHT22;724;49.910;12.530;2023-05-19T10:52:21;18.00;1.00
1461;DHT22;724;49.910;12.530;2023-05-19T10:54:50;17.10;1.00
1461;DHT22;724;49.910;12.530;2023-05-19T10:57:23;15.90;1.00
1461;DHT22;724;49.910;12.530;2023-05-19T10:59:51;16.70;1.00
1461;DHT22;724;49.910;12.530;2023-05-19T11:02:36;17.10;1.00
1461;DHT22;724;49.910;12.530;2023-05-19T11:05:08;16.50;1.00
1461;DHT22;724;49.910;12.530;2023-05-19T11:07:35;16.70;1.00
1461;DHT22;724;49.910;12.530;2023-05-19T11:10:05;16.70;1.00
1461;DHT22;724;49.910;12.530;2023-05-19T11:12:39;15.60;1.00
1461;DHT22;724;49.910;12.530;2023-05-19T11:15:09;16.60;1.00
1461;DHT22;724;49.910;12.530;2023-05-19T11:17:38;17.00;1.00
1461;DHT22;724;49.910;12.530;2023-05-19T11:20:11;17.00;1.00
1461;DHT22;724;49.910;12.530;2023-05-19T11:23:00;17.60;1.00
1461;DHT22;724;49.910;12.530;2023-05-19T11:25:40;17.70;1.00
1461;DHT22;724;49.910;12.530;2023-05-19T11:28:07;17.40;1.00
1461;DHT22;724;49.910;12.530;2023-05-19T11:30:36;17.20;1.00
1461;DHT22;724;49.910;12.530;2023-05-19T11:33:04;16.90;1.00
1461;DHT22;724;49.910;12.530;2023-05-19T11:35:34;18.10;1.00
1461;DHT22;724;49.910;12.530;2023-05-19T11:38:01;18.00;1.00
1461;DHT22;724;49.910;12.530;2023-05-19T11:40:29;18.50;1.00
1461;DHT22;724;49.910;12.530;2023-05-19T11:42:57;18.80;1.00
1461;DHT22;724;49.910;12.530;2023-05-19T11:45:24;18.20;1.00
1461;DHT22;724;49.910;12.530;2023-05-19T11:47:52;17.40;1.00
1461;DHT22;724;49.910;12.530;2023-05-19T11:50:21;18.30;1.00
1461;DHT22;724;49.910;12.530;2023-05-19T11:52:49;17.80;1.00
1461;DHT22;724;49.910;12.530;2023-05-19T11:55:16;16.40;1.00
1461;DHT22;724;49.910;12.530;2023-05-19T11:57:50;15.50;1.00
1461;DHT22;724;49.910;12.530;2023-05-19T12:00:17;16.10;1.00
1461;DHT22;724;49.910;12.530;2023-05-19T12:02:47;16.20;1.00
1461;DHT22;724;49.910;12.530;2023-05-19T12:05:18;16.10;1.00
1461;DHT22;724;49.910;12.530;2023-05-19T12:07:45;16.00;1.00
1461;DHT22;724;49.910;12.530;2023-05-19T12:10:15;16.30;1.00
1461;DHT22;724;49.910;12.530;2023-05-19T12:12:42;16.40;1.00
1461;DHT22;724;49.910;12.530;2023-05-19T12:15:10;16.60;1.00
1461;DHT22;724;49.910;12.530;2023-05-19T12:17:37;16.70;1.00
1461;DHT22;724;49.910;12.530;2023-05-19T12:20:05;16.80;1.00
1461;DHT22;724;49.910;12.530;2023-05-19T12:22:32;16.40;1.00
1461;DHT22;724;49.910;12.530;2023-05-19T12:24:59;16.20;1.00
1461;DHT22;724;49.910;12.530;2023-05-19T12:27:27;16.20;1.00
1461;DHT22;724;49.910;12.530;2023-05-19T12:29:55;15.70;1.00
1461;DHT22;724;49.910;12.530;2023-05-19T12:32:22;15.90;1.00
1461;DHT22;724;49.910;12.530;2023-05-19T12:34:50;15.60;1.00
1461;DHT22;724;49.910;12.530;2023-05-19T12:37:17;15.70;1.00
1461;DHT22;724;49.910;12.530;2023-05-19T12:39:45;15.60;1.00
1461;DHT22;724;49.910;12.530;2023-05-19T12:42:11;15.60;1.00
1461;DHT22;724;49.910;12.530;2023-05-19T12:44:44;15.20;1.00
1461;DHT22;724;49.910;12.530;2023-05-19T12:47:12;15.70;1.00
1461;DHT22;724;49.910;12.530;2023-05-19T12:49:53;16.00;1.00
1461;DHT22;724;49.910;12.530;2023-05-19T12:52:20;15.50;1.00
1461;DHT22;724;49.910;12.530;2023-05-19T12:54:48;15.90;1.00
1461;DHT22;724;49.910;12.530;2023-05-19T12:57:16;15.90;1.00
1461;DHT22;724;49.910;12.530;2023-05-19T12:59:45;16.00;1.00
1461;DHT22;724;49.910;12.530;2023-05-19T13:02:12;15.90;1.00
1461;DHT22;724;49.910;12.530;2023-05-19T13:04:39;15.80;1.00
1461;DHT22;724;49.910;12.530;2023-05-19T13:07:06;15.90;1.00
1461;DHT22;724;49.910;12.530;2023-05-19T13:09:33;15.60;1.00
1461;DHT22;724;49.910;12.530;2023-05-19T13:12:01;15.80;1.00
1461;DHT22;724;49.910;12.530;2023-05-19T13:14:29;15.40;1.00
1461;DHT22;724;49.910;12.530;2023-05-19T13:16:57;15.80;1.00
1461;DHT22;724;49.910;12.530;2023-05-19T13:19:24;16.80;1.00
1461;DHT22;724;49.910;12.530;2023-05-19T13:21:50;16.70;1.00
1461;DHT22;724;49.910;12.530;2023-05-19T13:24:17;16.20;1.00
1461;DHT22;724;49.910;12.530;2023-05-19T13:26:44;16.40;1.00
1461;DHT22;724;49.910;12.530;2023-05-19T13:29:12;15.90;1.00
1461;DHT22;724;49.910;12.530;2023-05-19T13:31:39;15.90;1.00
1461;DHT22;724;49.910;12.530;2023-05-19T13:34:07;15.90;1.00
1461;DHT22;724;49.910;12.530;2023-05-19T13:36:34;16.70;1.00
1461;DHT22;724;49.910;12.530;2023-05-19T13:39:01;17.20;1.00
1461;DHT22;724;49.910;12.530;2023-05-19T13:41:28;17.20;1.00
1461;DHT22;724;49.910;12.530;2023-05-19T13:43:56;16.60;1.00
1461;DHT22;724;49.910;12.530;2023-05-19T13:46:23;16.20;1.00
1461;DHT22;724;49.910;12.530;2023-05-19T13:48:50;16.00;1.00
1461;DHT22;724;49.910;12.530;2023-05-19T13:51:18;15.80;1.00
1461;DHT22;724;49.910;12.530;2023-05-19T13:53:45;16.10;1.00
1461;DHT22;724;49.910;12.530;2023-05-19T13:56:12;16.00;1.00
1461;DHT22;724;49.910;12.530;2023-05-19T13:58:39;15.70;1.00
1461;DHT22;724;49.910;12.530;2023-05-19T14:01:05;15.70;1.00
1461;DHT22;724;49.910;12.530;2023-05-19T14:03:32;16.00;1.00
1461;DHT22;724;49.910;12.530;2023-05-19T14:05:59;15.60;1.00
1461;DHT22;724;49.910;12.530;2023-05-19T14:08:27;15.90;1.00
1461;DHT22;724;49.910;12.530;2023-05-19T14:10:54;15.60;1.00
1461;DHT22;724;49.910;12.530;2023-05-19T14:13:21;15.70;1.00
1461;DHT22;724;49.910;12.530;2023-05-19T14:15:48;15.70;1.00
1461;DHT22;724;49.910;12.530;2023-05-19T14:18:15;15.60;1.00
1461;DHT22;724;49.910;12.530;2023-05-19T14:20:41;15.50;1.00
1461;DHT22;724;49.910;12.530;2023-05-19T14:23:08;15.80;1.00
1461;DHT22;724;49.910;12.530;2023-05-19T14:25:36;15.80;1.00
1461;DHT22;724;49.910;12.530;2023-05-19T14:28:03;15.50;1.00
1461;DHT22;724;49.910;12.530;2023-05-19T14:30:30;15.50;1.00
1461;DHT22;724;49.910;12.530;2023-05-19T14:32:57;15.80;1.00
1461;DHT22;724;49.910;12.530;2023-05-19T14:35:24;16.40;1.00
1461;DHT22;724;49.910;12.530;2023-05-19T14:37:51;16.50;1.00
1461;DHT22;724;49.910;12.530;2023-05-19T14:40:18;16.70;1.00
1461;DHT22;724;49.910;12.530;2023-05-19T14:42:46;15.90;1.00
1461;DHT22;724;49.910;12.530;2023-05-19T14:45:13;15.70;1.00
1461;DHT22;724;49.910;12.530;2023-05-19T14:47:40;15.30;1.00
1461;DHT22;724;49.910;12.530;2023-05-19T14:50:07;15.00;2.00
1461;DHT22;724;49.910;12.530;2023-05-19T14:52:34;14.90;4.50
1461;DHT22;724;49.910;12.530;2023-05-19T14:55:03;14.60;11.80
1461;DHT22;724;49.910;12.530;2023-05-19T14:57:30;14.90;20.00
1461;DHT22;724;49.910;12.530;2023-05-19T14:59:58;14.80;18.00
1461;DHT22;724;49.910;12.530;2023-05-19T15:02:25;15.10;14.80
1461;DHT22;724;49.910;12.530;2023-05-19T15:04:54;15.00;10.10
1461;DHT22;724;49.910;12.530;2023-05-19T15:07:21;15.20;8.50
1461;DHT22;724;49.910;12.530;2023-05-19T15:09:49;15.20;7.90
1461;DHT22;724;49.910;12.530;2023-05-19T15:12:15;15.00;8.40
1461;DHT22;724;49.910;12.530;2023-05-19T15:14:42;15.30;18.00
1461;DHT22;724;49.910;12.530;2023-05-19T15:17:10;15.50;16.40
1461;DHT22;724;49.910;12.530;2023-05-19T15:19:37;15.90;15.40
1461;DHT22;724;49.910;12.530;2023-05-19T15:22:05;15.80;14.00
1461;DHT22;724;49.910;12.530;2023-05-19T15:24:32;15.80;18.30
1461;DHT22;724;49.910;12.530;2023-05-19T15:26:59;15.50;2.40
1461;DHT22;724;49.910;12.530;2023-05-19T15:29:26;15.40;12.90
1461;DHT22;724;49.910;12.530;2023-05-19T15:31:53;15.00;7.70
1461;DHT22;724;49.910;12.530;2023-05-19T15:34:22;15.10;17.80
1461;DHT22;724;49.910;12.530;2023-05-19T15:36:49;14.90;22.00
1461;DHT22;724;49.910;12.530;2023-05-19T15:39:16;15.10;33.90
1461;DHT22;724;49.910;12.530;2023-05-19T15:41:43;15.30;43.00
1461;DHT22;724;49.910;12.530;2023-05-19T15:44:10;15.20;40.00
1461;DHT22;724;49.910;12.530;2023-05-19T15:46:36;15.20;52.50
1461;DHT22;724;49.910;12.530;2023-05-19T15:49:03;15.00;44.30
1461;DHT22;724;49.910;12.530;2023-05-19T15:51:31;14.80;38.70
1461;DHT22;724;49.910;12.530;2023-05-19T15:53:58;14.70;49.30
1461;DHT22;724;49.910;12.530;2023-05-19T15:56:25;15.00;45.40
1461;DHT22;724;49.910;12.530;2023-05-19T15:58:52;14.90;41.40
1461;DHT22;724;49.910;12.530;2023-05-19T16:01:19;14.80;47.30
1461;DHT22;724;49.910;12.530;2023-05-19T16:03:46;14.60;51.60
1461;DHT22;724;49.910;12.530;2023-05-19T16:06:12;14.60;59.50
1461;DHT22;724;49.910;12.530;2023-05-19T16:08:41;14.60;69.80
1461;DHT22;724;49.910;12.530;2023-05-19T16:11:07;14.40;70.50
1461;DHT22;724;49.910;12.530;2023-05-19T16:13:34;14.40;78.20
1461;DHT22;724;49.910;12.530;2023-05-19T16:16:01;14.40;82.90
1461;DHT22;724;49.910;12.530;2023-05-19T16:18:28;14.40;80.40
1461;DHT22;724;49.910;12.530;2023-05-19T16:20:54;14.30;84.50